createdAt,value
2022-12-05T00:00:38.101Z,12.10
2022-12-05T00:03:39.787Z,11.15
2022-12-05T00:06:43.714Z,14.15
2022-12-05T00:09:47.222Z,11.40
2022-12-05T00:12:49.013Z,14.10
2022-12-05T00:15:50.686Z,11.73
2022-12-05T00:18:52.993Z,9.43
2022-12-05T00:21:54.707Z,11.77
2022-12-05T00:24:57.764Z,13.57
2022-12-05T00:27:59.736Z,16.05
2022-12-05T00:31:02.596Z,9.77
2022-12-05T00:34:04.390Z,13.75
2022-12-05T00:37:06.057Z,14.98
2022-12-05T00:40:10.084Z,13.23
2022-12-05T00:43:11.888Z,7.40
2022-12-05T00:46:15.436Z,11.07
2022-12-05T00:49:17.295Z,11.30
2022-12-05T00:52:18.914Z,7.95
2022-12-05T00:55:21.886Z,10.48
2022-12-05T00:58:23.488Z,11.98
2022-12-05T01:01:28.516Z,12.02
2022-12-05T01:04:30.258Z,12.57
2022-12-05T01:07:31.877Z,9.25
2022-12-05T01:10:34.930Z,10.80
2022-12-05T01:13:36.990Z,9.98
2022-12-05T01:16:40.135Z,11.70
2022-12-05T01:19:41.993Z,13.27
2022-12-05T01:22:43.639Z,16.17
2022-12-05T01:25:48.992Z,10.02
2022-12-05T01:31:53.530Z,12.98
2022-12-05T01:34:55.289Z,17.48
2022-12-05T01:37:56.918Z,11.93
2022-12-05T01:41:04.677Z,9.40
2022-12-05T01:44:08.592Z,10.48
2022-12-05T01:47:10.232Z,15.57
2022-12-05T01:50:13.042Z,13.25
2022-12-05T01:53:15.955Z,16.50
2022-12-05T01:56:20.029Z,9.57
2022-12-05T01:59:22.870Z,9.23
2022-12-05T02:02:24.896Z,10.27
2022-12-05T02:05:28.653Z,10.05
2022-12-05T02:08:30.432Z,9.95
2022-12-05T02:11:34.696Z,12.57
2022-12-05T02:14:49.335Z,11.20
2022-12-05T02:18:01.322Z,9.85
2022-12-05T02:21:38.260Z,11.15
2022-12-05T02:24:55.362Z,12.50
2022-12-05T02:28:29.779Z,13.50
2022-12-05T02:31:38.053Z,11.35
2022-12-05T02:34:45.445Z,20.33
2022-12-05T02:37:54.260Z,8.80
2022-12-05T02:41:03.973Z,11.23
2022-12-05T02:44:11.981Z,17.65
2022-12-05T02:47:18.903Z,15.25
2022-12-05T02:50:23.574Z,11.38
2022-12-05T02:53:27.393Z,11.25
2022-12-05T02:56:32.639Z,12.15
2022-12-05T02:59:34.404Z,12.27
2022-12-05T03:02:41.259Z,10.10
2022-12-05T03:05:50.794Z,11.30
2022-12-05T03:08:58.080Z,9.93
2022-12-05T03:12:06.966Z,12.27
2022-12-05T03:15:14.332Z,10.05
2022-12-05T03:18:21.434Z,12.30
2022-12-05T03:21:31.175Z,9.82
2022-12-05T03:24:36.273Z,13.77
2022-12-05T03:27:46.890Z,14.77
2022-12-05T03:30:53.490Z,12.88
2022-12-05T03:33:59.399Z,11.25
2022-12-05T03:37:06.013Z,13.32
2022-12-05T03:40:14.878Z,12.75
2022-12-05T03:43:23.369Z,45.28
2022-12-05T03:46:29.476Z,10.07
2022-12-05T03:49:36.774Z,13.88
2022-12-05T03:53:11.435Z,10.38
2022-12-05T03:56:13.385Z,11.45
2022-12-05T03:59:20.193Z,10.27
2022-12-05T04:02:27.162Z,11.30
2022-12-05T04:05:35.222Z,12.32
2022-12-05T04:08:40.315Z,20.60
2022-12-05T04:11:47.897Z,32.75
2022-12-05T04:14:52.948Z,10.95
2022-12-05T04:17:58.410Z,9.55
2022-12-05T04:21:22.772Z,13.00
2022-12-05T04:24:47.621Z,14.57
2022-12-05T04:27:55.021Z,12.02
2022-12-05T04:31:03.725Z,37.05
2022-12-05T04:34:10.135Z,15.38
2022-12-05T04:37:19.586Z,15.73
2022-12-05T04:40:26.744Z,23.55
2022-12-05T04:43:30.176Z,16.70
2022-12-05T04:46:33.309Z,12.52
2022-12-05T04:49:36.755Z,10.65
2022-12-05T04:52:42.336Z,14.68
2022-12-05T04:55:48.031Z,24.70
2022-12-05T04:58:49.951Z,13.23
2022-12-05T05:01:55.991Z,17.48
2022-12-05T05:05:01.251Z,20.10
2022-12-05T05:08:04.789Z,14.52
2022-12-05T05:11:12.252Z,17.40
2022-12-05T05:14:13.885Z,12.25
2022-12-05T05:17:15.611Z,16.13
2022-12-05T05:20:27.332Z,16.98
2022-12-05T05:23:30.573Z,16.42
2022-12-05T05:26:35.838Z,16.08
2022-12-05T05:29:37.520Z,24.50
2022-12-05T05:32:39.193Z,23.27
2022-12-05T05:35:40.905Z,12.65
2022-12-05T05:38:46.442Z,19.58
2022-12-05T05:41:48.187Z,14.85
2022-12-05T05:44:49.818Z,13.85
2022-12-05T05:47:51.511Z,11.02
2022-12-05T05:50:53.162Z,12.50
2022-12-05T05:53:57.239Z,12.40
2022-12-05T05:56:58.925Z,12.63
2022-12-05T06:00:01.050Z,8.93
2022-12-05T06:03:02.965Z,16.02
2022-12-05T06:06:07.334Z,15.60
2022-12-05T06:09:10.842Z,9.27
2022-12-05T06:12:12.475Z,11.45
2022-12-05T06:15:14.120Z,11.10
2022-12-05T06:18:15.781Z,14.88
2022-12-05T06:21:17.678Z,8.98
2022-12-05T06:24:20.644Z,12.23
2022-12-05T06:27:22.304Z,14.55
2022-12-05T06:30:23.961Z,14.40
2022-12-05T06:33:25.623Z,9.77
2022-12-05T06:36:28.459Z,12.68
2022-12-05T06:39:31.435Z,13.05
2022-12-05T06:42:33.131Z,9.75
2022-12-05T06:45:34.822Z,13.45
2022-12-05T06:48:36.528Z,17.02
2022-12-05T06:51:38.250Z,8.95
2022-12-05T06:54:41.202Z,11.45
2022-12-05T06:57:42.833Z,10.93
2022-12-05T07:01:03.123Z,9.68
2022-12-05T07:04:06.807Z,9.43
2022-12-05T07:07:08.623Z,9.32
2022-12-05T07:10:11.871Z,9.30
2022-12-05T07:13:15.812Z,6.68
2022-12-05T07:16:17.668Z,8.60
2022-12-05T07:19:19.617Z,9.20
2022-12-05T07:22:22.908Z,11.68
2022-12-05T07:25:26.223Z,9.50
2022-12-05T07:28:28.768Z,11.68
2022-12-05T07:31:30.569Z,11.77
2022-12-05T07:34:32.292Z,13.43
2022-12-05T07:37:33.980Z,10.18
2022-12-05T07:40:37.658Z,7.85
2022-12-05T07:43:39.313Z,11.98
2022-12-05T07:46:41.052Z,9.35
2022-12-05T07:49:42.758Z,8.90
2022-12-05T07:52:44.375Z,12.95
2022-12-05T07:55:47.405Z,12.43
2022-12-05T07:58:50.474Z,8.07
2022-12-05T08:01:52.330Z,10.48
2022-12-05T08:04:54.042Z,8.60
2022-12-05T08:07:55.820Z,8.77
2022-12-05T08:11:03.253Z,8.43
2022-12-05T08:14:06.292Z,12.98
2022-12-05T08:17:08.079Z,10.38
2022-12-05T08:20:10.650Z,9.88
2022-12-05T08:23:12.299Z,10.73
2022-12-05T08:26:17.341Z,10.73
2022-12-05T08:29:21.755Z,10.13
2022-12-05T08:32:23.426Z,11.05
2022-12-05T08:35:25.089Z,18.33
2022-12-05T08:38:26.741Z,9.00
2022-12-05T08:41:31.068Z,13.57
2022-12-05T08:44:32.746Z,13.18
2022-12-05T08:47:34.421Z,14.73
2022-12-05T08:50:39.086Z,10.68
2022-12-05T08:53:44.423Z,15.32
2022-12-05T08:56:50.899Z,10.38
2022-12-05T08:59:52.599Z,9.52
2022-12-05T09:02:54.407Z,13.20
2022-12-05T09:06:05.669Z,14.13
2022-12-05T09:09:11.360Z,8.63
2022-12-05T09:12:14.843Z,10.13
2022-12-05T09:15:17.068Z,13.00
2022-12-05T09:18:20.348Z,10.73
2022-12-05T09:21:23.695Z,11.88
2022-12-05T09:24:25.763Z,11.75
2022-12-05T09:27:29.181Z,9.25
2022-12-05T09:30:30.874Z,13.90
2022-12-05T09:33:35.970Z,15.15
2022-12-05T09:36:37.652Z,15.13
2022-12-05T09:39:39.436Z,13.13
2022-12-05T09:42:55.563Z,9.82
2022-12-05T09:46:02.389Z,11.30
2022-12-05T09:49:06.394Z,10.93
2022-12-05T09:52:15.880Z,8.20
2022-12-05T09:55:19.459Z,7.68
2022-12-05T09:58:28.998Z,14.55
2022-12-05T10:01:40.611Z,11.18
2022-12-05T10:05:00.336Z,12.57
2022-12-05T10:08:11.665Z,10.18
2022-12-05T10:11:18.572Z,11.82
2022-12-05T10:14:31.794Z,12.13
2022-12-05T10:17:37.114Z,14.00
2022-12-05T10:20:45.924Z,13.38
2022-12-05T10:23:58.605Z,10.10
2022-12-05T10:27:04.436Z,7.70
2022-12-05T10:30:14.559Z,7.30
2022-12-05T10:33:21.682Z,10.80
2022-12-05T10:36:25.111Z,15.57
2022-12-05T10:39:27.303Z,13.43
2022-12-05T10:42:31.782Z,10.75
2022-12-05T10:45:41.562Z,11.60
2022-12-05T10:48:43.423Z,10.88
2022-12-05T10:51:45.438Z,8.50
2022-12-05T10:54:51.463Z,9.00
2022-12-05T10:58:15.545Z,9.63
2022-12-05T11:01:20.457Z,8.65
2022-12-05T11:04:26.987Z,8.70
2022-12-05T11:07:31.432Z,8.68
2022-12-05T11:10:37.577Z,7.95
2022-12-05T11:13:52.748Z,10.40
2022-12-05T11:16:57.866Z,11.10
2022-12-05T11:19:59.774Z,9.35
2022-12-05T11:23:17.440Z,10.00
2022-12-05T11:26:35.533Z,9.60
2022-12-05T11:29:38.767Z,8.23
2022-12-05T11:32:41.769Z,10.32
2022-12-05T11:35:43.534Z,10.13
2022-12-05T11:38:45.503Z,8.93
2022-12-05T11:42:09.462Z,9.10
2022-12-05T11:45:30.227Z,12.15
2022-12-05T11:48:49.328Z,8.40
2022-12-05T11:52:02.343Z,5.47
2022-12-05T11:55:15.204Z,11.63
2022-12-05T11:58:38.018Z,7.90
2022-12-05T12:01:52.229Z,7.10
2022-12-05T12:05:02.380Z,7.85
2022-12-05T12:08:17.010Z,9.38
2022-12-05T12:11:30.082Z,9.13
2022-12-05T12:14:39.755Z,8.68
2022-12-05T12:17:49.587Z,7.68
2022-12-05T12:21:07.076Z,11.23
2022-12-05T12:27:32.378Z,11.70
2022-12-05T12:30:46.150Z,9.35
2022-12-05T12:33:55.001Z,8.02
2022-12-05T12:37:03.340Z,8.95
2022-12-05T12:40:13.462Z,8.50
2022-12-05T12:43:52.547Z,10.30
2022-12-05T12:53:26.555Z,8.70
2022-12-05T12:56:38.882Z,13.20
2022-12-05T12:59:54.142Z,9.50
2022-12-05T13:03:03.818Z,9.90
2022-12-05T13:06:13.521Z,10.20
2022-12-05T13:09:20.204Z,11.50
2022-12-05T13:12:26.630Z,7.53
2022-12-05T13:15:38.324Z,9.00
2022-12-05T13:18:41.346Z,10.20
2022-12-05T13:21:43.009Z,8.95
2022-12-05T13:24:47.155Z,8.63
2022-12-05T13:27:55.529Z,11.82
2022-12-05T13:31:01.379Z,8.45
2022-12-05T13:34:03.216Z,9.57
2022-12-05T13:37:30.007Z,11.10
2022-12-05T13:40:54.331Z,15.38
2022-12-05T13:44:06.231Z,7.68
2022-12-05T13:47:22.747Z,10.30
2022-12-05T13:50:34.836Z,9.82
2022-12-05T13:53:41.249Z,8.23
2022-12-05T13:56:50.263Z,23.25
2022-12-05T14:00:05.008Z,9.40
2022-12-05T14:03:18.068Z,10.48
2022-12-05T14:06:56.060Z,7.88
2022-12-05T14:09:58.110Z,9.07
2022-12-05T14:13:03.630Z,8.82
2022-12-05T14:16:52.373Z,12.43
2022-12-05T14:20:13.780Z,7.80
2022-12-05T14:23:54.751Z,10.32
2022-12-05T14:27:19.995Z,15.18
2022-12-05T14:30:34.771Z,12.57
2022-12-05T14:33:36.607Z,10.82
2022-12-05T14:36:40.820Z,10.77
2022-12-05T14:40:16.611Z,9.02
2022-12-05T14:43:35.467Z,11.55
2022-12-05T14:46:45.181Z,8.63
2022-12-05T14:50:22.055Z,8.98
2022-12-05T14:53:33.854Z,6.78
2022-12-05T14:56:42.244Z,7.47
2022-12-05T14:59:49.742Z,6.47
2022-12-05T15:02:57.483Z,9.30
2022-12-05T15:06:03.749Z,7.25
2022-12-05T15:09:38.379Z,10.07
2022-12-05T15:12:46.930Z,8.45
2022-12-05T15:16:00.817Z,7.65
2022-12-05T15:19:11.707Z,8.38
2022-12-05T15:22:15.205Z,6.78
2022-12-05T15:25:29.512Z,8.18
2022-12-05T15:28:33.195Z,11.60
2022-12-05T15:31:39.628Z,9.30
2022-12-05T15:34:49.202Z,9.10
2022-12-05T15:37:54.738Z,6.32
2022-12-05T15:40:56.916Z,6.40
2022-12-05T15:43:58.864Z,9.82
2022-12-05T15:47:00.560Z,6.05
2022-12-05T15:50:04.636Z,6.55
2022-12-05T15:53:15.147Z,6.68
2022-12-05T15:56:22.480Z,9.20
2022-12-05T15:59:29.753Z,6.60
2022-12-05T16:02:41.852Z,4.35
2022-12-05T16:05:52.190Z,3.92
2022-12-05T16:08:54.953Z,3.45
2022-12-05T16:11:59.492Z,4.85
2022-12-05T16:15:04.911Z,3.60
2022-12-05T16:18:07.038Z,3.75
2022-12-05T16:21:37.945Z,3.20
2022-12-05T16:24:42.552Z,4.43
2022-12-05T16:27:57.337Z,7.00
2022-12-05T16:31:01.746Z,5.43
2022-12-05T16:34:06.764Z,5.55
2022-12-05T16:37:18.787Z,4.80
2022-12-05T16:40:22.224Z,5.30
2022-12-05T16:43:27.824Z,5.22
2022-12-05T16:46:44.053Z,3.47
2022-12-05T16:49:46.612Z,4.15
2022-12-05T16:52:49.869Z,2.63
2022-12-05T16:55:52.060Z,6.18
2022-12-05T16:58:54.059Z,5.18
2022-12-05T17:01:55.870Z,5.72
2022-12-05T17:04:58.793Z,4.63
2022-12-05T17:08:02.144Z,5.85
2022-12-05T17:11:05.706Z,3.70
2022-12-05T17:14:11.526Z,3.20
2022-12-05T17:17:15.318Z,5.40
2022-12-05T17:20:17.228Z,9.20
2022-12-05T17:23:20.603Z,6.13
2022-12-05T17:26:22.560Z,5.30
2022-12-05T17:29:24.406Z,8.63
2022-12-05T17:32:26.116Z,5.97
2022-12-05T17:35:28.971Z,3.85
2022-12-05T17:38:31.975Z,4.00
2022-12-05T17:41:33.697Z,6.10
2022-12-05T17:44:35.624Z,4.05
2022-12-05T17:47:37.607Z,4.40
2022-12-05T17:50:40.742Z,3.20
2022-12-05T17:53:50.331Z,8.75
2022-12-05T17:56:52.583Z,2.92
2022-12-05T17:59:55.787Z,4.28
2022-12-05T18:02:57.581Z,3.28
2022-12-05T18:05:59.624Z,4.90
2022-12-05T18:09:03.240Z,2.83
2022-12-05T18:12:05.505Z,2.65
2022-12-05T18:15:08.442Z,2.88
2022-12-05T18:18:14.020Z,2.80
2022-12-05T18:21:15.820Z,3.45
2022-12-05T18:24:19.033Z,4.45
2022-12-05T18:27:21.510Z,4.15
2022-12-05T18:30:23.280Z,3.80
2022-12-05T18:33:24.932Z,3.40
2022-12-05T18:36:26.578Z,2.10
2022-12-05T18:39:29.793Z,2.28
2022-12-05T18:42:31.587Z,2.55
2022-12-05T18:45:33.418Z,2.60
2022-12-05T18:48:41.666Z,2.45
2022-12-05T18:51:46.604Z,3.13
2022-12-05T18:55:02.990Z,5.63
2022-12-05T18:58:12.436Z,2.20
2022-12-05T19:01:17.098Z,2.97
2022-12-05T19:04:21.372Z,1.92
2022-12-05T19:07:23.071Z,3.28
2022-12-05T19:10:26.162Z,1.75
2022-12-05T19:13:27.798Z,2.00
2022-12-05T19:16:32.183Z,2.92
2022-12-05T19:19:33.919Z,1.88
2022-12-05T19:22:35.657Z,3.20
2022-12-05T19:25:39.491Z,4.38
2022-12-05T19:28:41.452Z,2.92
2022-12-05T19:31:43.887Z,1.67
2022-12-05T19:34:46.490Z,2.03
2022-12-05T19:37:48.090Z,3.33
2022-12-05T19:40:57.098Z,2.40
2022-12-05T19:43:59.204Z,2.65
2022-12-05T19:47:00.874Z,2.67
2022-12-05T19:50:03.114Z,2.35
2022-12-05T19:53:04.772Z,1.48
2022-12-05T19:56:12.205Z,2.63
2022-12-05T19:59:16.204Z,3.00
2022-12-05T20:02:17.883Z,3.50
2022-12-05T20:05:19.571Z,3.55
2022-12-05T20:08:21.312Z,2.42
2022-12-05T20:11:25.009Z,2.58
2022-12-05T20:14:27.327Z,3.83
2022-12-05T20:17:29.029Z,3.45
2022-12-05T20:20:30.712Z,2.67
2022-12-05T20:23:33.713Z,3.30
2022-12-05T20:26:38.872Z,10.85
2022-12-05T20:32:43.085Z,9.20
2022-12-05T20:35:45.000Z,6.97
2022-12-05T20:38:48.255Z,6.82
2022-12-05T20:41:51.952Z,4.35
2022-12-05T20:44:53.696Z,3.95
2022-12-05T20:47:55.417Z,5.60
2022-12-05T20:51:04.310Z,3.90
2022-12-05T20:54:07.301Z,3.55
2022-12-05T20:57:10.331Z,4.47
2022-12-05T21:00:12.518Z,4.57
2022-12-05T21:03:17.199Z,4.68
2022-12-05T21:06:22.321Z,4.18
2022-12-05T21:09:28.453Z,7.05
2022-12-05T21:12:31.490Z,5.47
2022-12-05T21:15:35.930Z,4.85
2022-12-05T21:18:38.471Z,5.15
2022-12-05T21:21:40.357Z,3.90
2022-12-05T21:24:42.003Z,3.65
2022-12-05T21:27:45.076Z,5.78
2022-12-05T21:30:47.113Z,4.55
2022-12-05T21:33:51.005Z,5.72
2022-12-05T21:36:52.695Z,5.38
2022-12-05T21:39:54.536Z,4.18
2022-12-05T21:42:57.499Z,5.28
2022-12-05T21:45:59.524Z,5.30
2022-12-05T21:49:01.299Z,5.72
2022-12-05T21:52:03.195Z,6.03
2022-12-05T21:55:06.106Z,6.15
2022-12-05T21:58:09.383Z,5.22
2022-12-05T22:01:12.514Z,6.45
2022-12-05T22:04:14.997Z,4.40
2022-12-05T22:07:16.838Z,7.15
2022-12-05T22:10:18.642Z,5.20
2022-12-05T22:13:21.991Z,4.38
2022-12-05T22:16:29.215Z,5.32
2022-12-05T22:19:34.310Z,4.53
2022-12-05T22:22:36.025Z,3.83
2022-12-05T22:25:37.929Z,7.13
2022-12-05T22:28:41.094Z,3.55
2022-12-05T22:31:42.731Z,3.63
2022-12-05T22:34:44.478Z,3.65
2022-12-05T22:37:46.115Z,5.05
2022-12-05T22:40:54.096Z,5.22
2022-12-05T22:43:59.057Z,3.85
2022-12-05T22:47:00.668Z,3.05
2022-12-05T22:50:02.543Z,5.28
2022-12-05T22:53:04.297Z,3.47
2022-12-05T22:56:07.727Z,3.72
2022-12-05T22:59:14.616Z,4.97
2022-12-05T23:02:16.507Z,2.42
2022-12-05T23:05:18.691Z,3.88
2022-12-05T23:08:20.417Z,5.18
2022-12-05T23:11:23.468Z,3.95
2022-12-05T23:14:26.525Z,6.32
2022-12-05T23:17:28.211Z,3.40
2022-12-05T23:20:29.879Z,3.22
2022-12-05T23:23:31.588Z,4.13
2022-12-05T23:26:35.716Z,4.63
2022-12-05T23:29:38.743Z,4.90
2022-12-05T23:32:40.340Z,4.97
2022-12-05T23:35:42.305Z,3.72
2022-12-05T23:38:44.056Z,5.72
2022-12-05T23:41:46.628Z,4.63
2022-12-05T23:44:49.650Z,4.20
2022-12-05T23:47:51.329Z,3.05
2022-12-05T23:51:00.885Z,5.00
2022-12-05T23:54:02.674Z,3.55
2022-12-05T23:57:04.552Z,2.88
